Terminal Aerodrome Forecast
Issued by NWS Paducah, KY

Home | Current Version | Previous Version | Text Only | Print | Product List | Glossary On
Versions: 1 2 3 4 5 6 7 8 9 10 11 12 13 14 15 16 17 18 19
723
FTUS43 KPAH 280132 AAC
TAFPAH
TAF AMD
KPAH 280132Z 2802/2824 19006KT P6SM VCTS SCT040CB OVC150
     FM280300 22005KT P6SM SCT250
     FM281400 26010KT P6SM SCT250=

USA.gov is the U.S. government's official web portal to all federal, state and local government web resources and services.